Time;durP1;ratioP1;P1;durP2;ratioP2;P2;SDS_P1;SDS_P2;PMS_P1;PMS_P2;Temp;Humidity;BMP_temperature;BMP_pressure;BME280_temperature;BME280_humidity;BME280_pressure;Samples;Min_cycle;Max_cycle;Signal;HPM_P1;HPM_P2
2022/05/28 00:01:15;;;;;;;;;3.67;3.67;;;;;17.87;48.72;102061.34;4984848;28;45609;-91
2022/05/28 00:03:46;;;;;;;;;4.00;4.00;;;;;17.23;48.79;101946.06;5018494;28;45464;-91
2022/05/28 00:06:14;;;;;;;;;4.67;3.67;;;;;18.06;48.74;102084.63;5008504;28;48614;-90
2022/05/28 00:08:40;;;;;;;;;5.00;2.67;;;;;17.50;49.10;102011.13;5010455;28;45454;-91
2022/05/28 00:11:18;;;;;;;;;4.00;3.00;;;;;17.86;48.84;102067.69;5018390;28;45345;-91
2022/05/28 00:13:44;;;;;;;;;3.00;3.00;;;;;18.00;48.97;102093.91;5003454;28;45235;-91
2022/05/28 00:16:11;;;;;;;;;5.00;5.00;;;;;17.90;49.05;102069.25;5018355;28;46209;-91
2022/05/28 00:18:38;;;;;;;;;3.33;2.00;;;;;17.50;49.30;102000.34;5017543;28;45475;-91
2022/05/28 00:21:04;;;;;;;;;3.00;3.00;;;;;17.65;49.10;102045.41;5010719;28;45491;-91
2022/05/28 00:23:29;;;;;;;;;4.00;4.00;;;;;17.19;49.06;101958.84;5006874;28;45390;-90
2022/05/28 00:25:54;;;;;;;;;5.00;3.33;;;;;17.46;49.42;102012.25;5004317;28;47312;-90
2022/05/28 00:28:21;;;;;;;;;6.67;3.00;;;;;16.88;49.63;101916.47;5018051;28;45456;-92
2022/05/28 00:30:47;;;;;;;;;4.67;4.67;;;;;17.24;49.51;101978.34;5005126;28;45372;-91
2022/05/28 00:33:13;;;;;;;;;2.33;2.33;;;;;17.82;49.46;102076.03;5006427;28;45573;-90
2022/05/28 00:35:38;;;;;;;;;4.33;3.00;;;;;17.52;49.62;102023.59;5004868;28;48540;-91
2022/05/28 00:38:04;;;;;;;;;5.33;4.00;;;;;17.52;49.70;102036.19;5004220;28;45491;-91
2022/05/28 00:40:29;;;;;;;;;6.00;4.00;;;;;17.27;49.82;102010.50;5017755;28;45404;-90
2022/05/28 00:43:00;;;;;;;;;2.33;1.67;;;;;17.35;50.01;102010.13;4997474;28;45343;-90
2022/05/28 00:45:27;;;;;;;;;4.33;3.33;;;;;17.57;49.98;102055.69;5005971;28;45534;-91
2022/05/28 00:47:55;;;;;;;;;7.00;3.33;;;;;17.66;50.15;102062.44;5004224;28;45463;-90
2022/05/28 00:50:21;;;;;;;;;4.00;2.67;;;;;17.45;50.35;102046.41;5004684;28;45459;-91
2022/05/28 00:52:46;;;;;;;;;5.00;5.00;;;;;17.43;49.98;102044.75;5003155;28;45376;-90
2022/05/28 00:55:14;;;;;;;;;5.00;4.67;;;;;17.59;50.24;102078.06;5001469;28;45710;-91
2022/05/28 00:57:41;;;;;;;;;3.00;2.33;;;;;17.56;50.42;102077.34;5017622;28;45726;-91
2022/05/28 01:00:10;;;;;;;;;2.67;2.67;;;;;16.71;50.41;101933.44;5008583;28;45535;-91
2022/05/28 01:02:57;;;;;;;;;3.67;3.67;;;;;17.47;50.35;102067.91;5005832;28;45520;-90
2022/05/28 01:05:26;;;;;;;;;5.00;4.00;;;;;17.45;50.87;102068.00;5007282;28;46603;-91
2022/05/28 01:08:11;;;;;;;;;5.33;4.67;;;;;16.99;50.68;102002.09;5014263;28;45539;-90
2022/05/28 01:10:56;;;;;;;;;5.00;4.00;;;;;17.02;50.55;102013.59;5001214;28;45265;-90
2022/05/28 01:13:32;;;;;;;;;3.00;3.00;;;;;17.05;50.91;102018.81;5015274;28;45285;-90
2022/05/28 01:16:06;;;;;;;;;7.00;3.33;;;;;17.08;50.98;102024.03;5001740;28;46367;-91
2022/05/28 01:18:40;;;;;;;;;6.67;5.00;;;;;17.28;51.40;102060.78;5005657;28;45270;-91
2022/05/28 01:21:13;;;;;;;;;5.33;3.00;;;;;17.19;51.68;102057.69;5006465;28;45306;-90
2022/05/28 01:23:41;;;;;;;;;2.67;2.67;;;;;17.24;51.14;102067.25;5008295;28;45301;-91
2022/05/28 01:26:22;;;;;;;;;5.33;3.33;;;;;17.21;51.39;102059.34;5006022;28;47750;-90
2022/05/28 01:28:55;;;;;;;;;3.00;2.00;;;;;17.18;51.27;102056.78;5005199;28;45406;-91
2022/05/28 01:31:23;;;;;;;;;4.00;4.00;;;;;17.00;51.58;102045.13;5018551;28;45313;-92
2022/05/28 01:33:49;;;;;;;;;8.00;5.33;;;;;16.88;51.87;102008.03;5015851;28;45388;-91
2022/05/28 01:36:17;;;;;;;;;1.00;0.00;;;;;16.76;51.73;102000.50;5008060;28;45959;-91
2022/05/28 01:38:45;;;;;;;;;4.00;3.00;;;;;17.06;51.79;102063.66;5005406;28;45475;-91
2022/05/28 01:41:13;;;;;;;;;7.33;6.00;;;;;17.02;52.36;102045.91;5004427;28;47152;-91
2022/05/28 01:43:42;;;;;;;;;2.67;2.00;;;;;16.82;52.35;102022.66;4999867;28;45559;-91
2022/05/28 01:46:11;;;;;;;;;4.33;2.33;;;;;16.71;52.21;101999.88;5013003;28;46884;-91
2022/05/28 01:48:38;;;;;;;;;4.33;4.00;;;;;16.98;52.16;102046.16;5016553;28;45558;-91
2022/05/28 01:51:05;;;;;;;;;3.67;3.67;;;;;16.96;52.34;102050.75;4999203;28;45462;-91
2022/05/28 01:56:15;;;;;;;;;3.67;3.67;;;;;16.90;52.47;102049.19;5005260;28;45593;-90
2022/05/28 01:58:41;;;;;;;;;5.00;3.00;;;;;16.86;52.69;102040.41;5001619;28;45505;-91
2022/05/28 02:01:09;;;;;;;;;4.00;3.00;;;;;16.53;52.81;101985.50;5020268;28;45437;-90
2022/05/28 02:03:39;;;;;;;;;9.00;5.33;;;;;16.18;53.01;101929.78;5009084;28;45652;-92
2022/05/28 02:06:04;;;;;;;;;4.33;4.33;;;;;16.62;53.17;102010.16;5015752;28;45483;-90
2022/05/28 02:08:36;;;;;;;;;4.67;4.00;;;;;16.39;52.83;101961.97;4999568;28;45481;-90
2022/05/28 02:11:11;;;;;;;;;6.00;3.00;;;;;16.79;52.78;102030.03;5007256;28;45404;-91
2022/05/28 02:13:54;;;;;;;;;3.67;3.67;;;;;16.82;53.04;102033.44;5004060;28;45316;-90
2022/05/28 02:16:38;;;;;;;;;5.33;5.33;;;;;16.56;52.63;101988.06;5016307;28;47443;-91
2022/05/28 02:19:14;;;;;;;;;4.33;4.33;;;;;16.60;53.15;101997.69;5020153;28;45222;-90
2022/05/28 02:21:39;;;;;;;;;5.33;5.00;;;;;16.81;53.07;102028.13;5020052;28;45495;-90
2022/05/28 02:24:17;;;;;;;;;5.33;4.00;;;;;16.80;52.97;102021.84;5012973;28;45314;-90
2022/05/28 02:26:52;;;;;;;;;5.00;4.00;;;;;16.24;53.30;101920.50;5011462;28;47234;-91
2022/05/28 02:29:19;;;;;;;;;7.00;5.33;;;;;16.66;53.68;102005.47;4997115;28;46420;-91
2022/05/28 02:31:49;;;;;;;;;4.00;3.00;;;;;16.36;53.48;101964.78;5018433;28;45407;-90
2022/05/28 02:34:15;;;;;;;;;3.00;3.00;;;;;16.63;53.38;102011.03;5002888;28;45428;-91
2022/05/28 02:36:42;;;;;;;;;5.33;4.33;;;;;16.11;53.76;101897.84;5018592;28;48318;-91
2022/05/28 02:39:07;;;;;;;;;5.33;4.00;;;;;16.21;53.38;101935.00;5011897;28;45444;-90
2022/05/28 02:41:33;;;;;;;;;4.33;3.33;;;;;16.56;53.72;101990.75;5008187;28;45575;-91
2022/05/28 02:43:58;;;;;;;;;6.00;4.00;;;;;15.63;53.31;101836.44;5005161;28;45448;-91
2022/05/28 02:46:24;;;;;;;;;4.33;4.00;;;;;16.49;53.70;101974.03;5003517;28;46732;-90
2022/05/28 02:48:49;;;;;;;;;5.67;5.67;;;;;16.65;53.92;102009.13;5016547;28;46120;-91
2022/05/28 02:51:21;;;;;;;;;6.00;4.00;;;;;16.54;54.05;102001.56;5001971;28;45361;-91
2022/05/28 02:53:48;;;;;;;;;5.67;3.00;;;;;16.63;53.95;102013.72;5019644;28;45649;-91
2022/05/28 02:56:14;;;;;;;;;4.33;4.00;;;;;16.01;53.91;101922.53;5019190;28;45602;-91
2022/05/28 02:58:40;;;;;;;;;4.00;4.00;;;;;16.40;53.99;101974.47;5018818;28;46134;-91
2022/05/28 03:01:30;;;;;;;;;7.33;5.33;;;;;16.55;54.20;102006.03;5015648;28;45512;-91
2022/05/28 03:03:58;;;;;;;;;5.00;5.00;;;;;16.37;54.06;101972.78;5003047;28;45570;-91
2022/05/28 03:06:24;;;;;;;;;4.00;4.00;;;;;16.12;53.98;101938.13;5006352;28;47201;-91
2022/05/28 03:08:49;;;;;;;;;4.00;4.00;;;;;15.56;54.43;101851.09;5006470;28;45469;-90
2022/05/28 03:11:15;;;;;;;;;4.00;4.00;;;;;16.21;54.07;101964.59;5006710;28;45467;-91
2022/05/28 03:13:41;;;;;;;;;8.33;7.33;;;;;16.33;54.22;101986.47;5003569;28;46003;-91
2022/05/28 03:16:07;;;;;;;;;5.00;3.67;;;;;16.09;54.19;101948.16;5015403;28;46377;-91
2022/05/28 03:18:33;;;;;;;;;7.00;4.67;;;;;16.11;54.39;101960.59;5018735;28;45472;-92
2022/05/28 03:20:58;;;;;;;;;6.00;5.00;;;;;16.22;54.33;101976.22;5019224;28;45227;-91
2022/05/28 03:23:23;;;;;;;;;6.00;5.00;;;;;16.16;54.12;101968.44;5019928;28;45445;-91
2022/05/28 03:25:49;;;;;;;;;3.00;3.00;;;;;16.31;54.08;101997.28;5019327;28;45420;-91
2022/05/28 03:28:15;;;;;;;;;5.00;5.00;;;;;16.38;54.60;102011.34;5003430;28;45517;-91
2022/05/28 03:30:40;;;;;;;;;5.67;5.67;;;;;16.10;54.62;101957.97;5018972;28;45567;-90
2022/05/28 03:33:06;;;;;;;;;6.00;4.33;;;;;16.39;54.38;102005.03;5020262;28;45611;-91
2022/05/28 03:35:31;;;;;;;;;5.33;4.33;;;;;16.06;54.41;101970.72;5019915;28;46931;-91
2022/05/28 03:37:56;;;;;;;;;3.00;3.00;;;;;16.35;54.56;102014.19;5019864;28;45835;-91
2022/05/28 03:40:22;;;;;;;;;4.00;4.00;;;;;15.54;54.68;101881.69;5022137;28;45570;-91
2022/05/28 03:42:56;;;;;;;;;5.33;4.00;;;;;15.74;54.75;101908.53;5023163;28;45438;-91
2022/05/28 03:45:24;;;;;;;;;5.00;5.00;;;;;16.32;54.86;101999.06;5009419;28;47366;-91
2022/05/28 03:47:49;;;;;;;;;5.00;5.00;;;;;16.35;54.61;102006.09;5013511;28;45447;-91
2022/05/28 03:50:15;;;;;;;;;7.33;5.67;;;;;15.78;54.60;101926.28;5018364;28;45403;-91
2022/05/28 03:52:40;;;;;;;;;5.00;4.00;;;;;15.87;54.99;101937.53;5003088;28;45409;-90
2022/05/28 03:55:06;;;;;;;;;2.33;2.33;;;;;15.30;54.89;101849.63;5018890;28;45889;-91
2022/05/28 03:57:33;;;;;;;;;6.67;4.33;;;;;16.29;54.93;102020.72;4989553;28;45448;-90
2022/05/28 03:59:59;;;;;;;;;4.33;4.33;;;;;15.96;54.79;101972.94;5013595;28;45278;-91
2022/05/28 04:02:25;;;;;;;;;5.00;4.00;;;;;16.28;54.73;102039.63;5016828;28;45464;-91
2022/05/28 04:04:51;;;;;;;;;6.33;5.00;;;;;15.29;54.88;101871.19;5003971;28;46644;-91
2022/05/28 04:07:17;;;;;;;;;5.00;5.00;;;;;15.83;55.36;101961.03;5002585;28;45376;-91
2022/05/28 04:09:43;;;;;;;;;5.33;5.00;;;;;16.24;55.12;102030.81;5017199;28;45425;-90
2022/05/28 04:12:08;;;;;;;;;8.00;6.67;;;;;16.09;55.36;102016.28;5018185;28;45708;-91
2022/05/28 04:14:34;;;;;;;;;7.33;7.33;;;;;16.20;55.11;102038.19;5017806;28;45564;-91
2022/05/28 04:16:59;;;;;;;;;7.67;6.00;;;;;16.09;55.46;102031.56;5018254;28;45456;-91
2022/05/28 04:19:25;;;;;;;;;8.00;5.00;;;;;15.79;55.18;101968.34;5002711;28;45564;-91
2022/05/28 04:21:50;;;;;;;;;4.33;4.33;;;;;16.16;55.53;102039.25;5000421;28;45511;-90
2022/05/28 04:24:16;;;;;;;;;7.67;6.67;;;;;15.31;55.31;101890.78;5017710;28;45579;-90
2022/05/28 04:26:41;;;;;;;;;6.00;6.00;;;;;15.91;55.25;102001.84;4996313;28;46498;-91
2022/05/28 04:29:07;;;;;;;;;7.67;6.33;;;;;16.01;55.17;102016.66;4988509;28;45346;-91
2022/05/28 04:31:33;;;;;;;;;5.00;5.00;;;;;15.61;55.74;101953.88;5017569;28;48049;-90
2022/05/28 04:33:58;;;;;;;;;8.00;6.67;;;;;15.78;55.48;101980.06;5020482;28;46358;-91
2022/05/28 04:36:24;;;;;;;;;7.67;6.00;;;;;16.09;55.39;102043.19;5008505;28;45518;-91
2022/05/28 04:38:49;;;;;;;;;7.33;7.33;;;;;15.86;55.56;101993.13;5006085;28;45542;-91
2022/05/28 04:41:15;;;;;;;;;2.33;2.33;;;;;15.63;55.87;101973.50;5007069;28;45453;-91
2022/05/28 04:43:40;;;;;;;;;9.50;6.50;;;;;16.06;55.93;102039.75;5017676;28;46229;-90
2022/05/28 04:46:06;;;;;;;;;4.67;4.67;;;;;16.06;55.81;102037.94;4996299;28;46132;-91
2022/05/28 04:48:32;;;;;;;;;5.67;5.67;;;;;15.59;55.58;101960.28;5017913;28;45406;-91
2022/05/28 04:50:58;;;;;;;;;8.00;4.33;;;;;15.61;55.73;101963.75;5017707;28;45535;-90
2022/05/28 04:53:23;;;;;;;;;3.00;2.00;;;;;15.80;55.65;101999.69;5008634;28;47353;-91
2022/05/28 04:55:49;;;;;;;;;6.00;6.00;;;;;16.10;55.76;102042.22;5003190;28;45396;-91
2022/05/28 04:58:15;;;;;;;;;6.67;5.33;;;;;15.50;55.42;101940.09;5001916;28;45389;-91
2022/05/28 05:00:41;;;;;;;;;9.00;6.00;;;;;15.85;55.89;102002.16;5000021;28;45472;-90
2022/05/28 05:03:07;;;;;;;;;6.00;5.67;;;;;15.94;55.84;102015.16;5029047;28;48315;-91
2022/05/28 05:05:32;;;;;;;;;7.67;6.33;;;;;15.92;55.90;102008.09;5013181;28;45879;-91
2022/05/28 05:07:58;;;;;;;;;7.67;6.00;;;;;16.03;55.77;102022.78;5019151;28;45570;-90
2022/05/28 05:10:23;;;;;;;;;6.67;6.67;;;;;15.97;55.54;102020.41;5016071;28;45219;-91
2022/05/28 05:12:49;;;;;;;;;5.67;5.33;;;;;15.13;55.52;101871.03;5004098;28;47374;-90
2022/05/28 05:15:14;;;;;;;;;7.00;5.33;;;;;16.17;55.78;102049.06;5005781;28;45379;-90
2022/05/28 05:17:40;;;;;;;;;8.67;7.33;;;;;15.85;56.20;102001.25;5009871;28;45451;-90
2022/05/28 05:20:07;;;;;;;;;9.67;6.67;;;;;16.17;56.11;102045.50;5017245;28;45924;-90
2022/05/28 05:22:32;;;;;;;;;5.67;3.67;;;;;16.16;56.14;102041.06;5016572;28;46412;-90
2022/05/28 05:24:59;;;;;;;;;5.00;5.00;;;;;15.97;55.72;102012.34;5017399;28;45435;-91
2022/05/28 05:27:24;;;;;;;;;7.67;6.67;;;;;15.92;55.82;102010.78;5007286;28;45478;-91
2022/05/28 05:29:50;;;;;;;;;7.33;6.00;;;;;15.87;56.01;101997.56;5010758;28;49117;-90
2022/05/28 05:32:15;;;;;;;;;7.33;7.33;;;;;15.89;56.10;102008.25;5016684;28;45553;-90
2022/05/28 05:34:42;;;;;;;;;6.00;6.00;;;;;16.04;56.23;102024.56;5003268;28;45499;-91
2022/05/28 05:37:08;;;;;;;;;8.00;7.33;;;;;15.86;56.24;102001.19;5001061;28;45408;-91
2022/05/28 05:39:33;;;;;;;;;11.67;8.00;;;;;16.19;55.98;102052.56;5022615;28;45460;-90
2022/05/28 05:41:59;;;;;;;;;7.67;5.33;;;;;15.81;55.98;101981.72;5032757;28;47319;-91
2022/05/28 05:44:24;;;;;;;;;9.67;6.00;;;;;15.75;56.23;101968.56;5024152;28;45619;-90
2022/05/28 05:46:50;;;;;;;;;7.00;7.00;;;;;15.97;56.01;102009.66;5022788;28;45617;-90
2022/05/28 05:49:15;;;;;;;;;12.33;7.67;;;;;16.03;56.47;102012.03;5007050;28;45501;-91
2022/05/28 05:51:45;;;;;;;;;8.33;6.33;;;;;15.72;56.58;101957.94;5022613;28;46627;-91
2022/05/28 05:54:19;;;;;;;;;5.67;5.67;;;;;16.15;56.37;102028.56;5036324;28;45428;-90
2022/05/28 05:56:45;;;;;;;;;7.67;6.00;;;;;16.20;55.97;102029.22;5015966;28;45512;-90
2022/05/28 05:59:10;;;;;;;;;4.00;4.00;;;;;16.00;56.09;101985.28;5008800;28;45557;-90
2022/05/28 06:01:36;;;;;;;;;7.67;6.33;;;;;15.98;56.06;101980.94;5004269;28;49199;-90
2022/05/28 06:04:01;;;;;;;;;6.67;5.00;;;;;16.28;56.31;102027.03;4988146;28;45903;-91
2022/05/28 06:06:27;;;;;;;;;8.00;7.00;;;;;15.68;55.88;101908.78;5008341;28;45358;-90
2022/05/28 06:08:53;;;;;;;;;6.00;6.00;;;;;16.01;55.54;101962.84;5008666;28;45353;-89
2022/05/28 06:11:19;;;;;;;;;10.67;7.67;;;;;16.62;55.38;102061.31;5008378;28;46445;-91
2022/05/28 06:13:44;;;;;;;;;7.00;6.00;;;;;16.48;55.59;102033.28;5004747;28;45529;-90
2022/05/28 06:16:10;;;;;;;;;9.00;6.67;;;;;16.66;55.55;102053.94;5020392;28;45491;-89
2022/05/28 06:18:35;;;;;;;;;10.00;8.00;;;;;15.76;55.53;101898.59;5008950;28;45331;-90
2022/05/28 06:21:01;;;;;;;;;10.33;6.00;;;;;16.31;55.50;101974.91;5007726;28;46429;-90
2022/05/28 06:23:27;;;;;;;;;9.33;5.67;;;;;16.58;55.31;102016.63;5010124;28;45282;-91
2022/05/28 06:25:53;;;;;;;;;5.33;5.33;;;;;16.32;54.97;101974.84;5019821;28;45480;-91
2022/05/28 06:28:22;;;;;;;;;7.67;6.00;;;;;16.43;55.25;101983.25;5003619;28;45434;-90
2022/05/28 06:30:52;;;;;;;;;11.33;7.33;;;;;15.76;55.17;101860.97;5007111;28;47181;-90
2022/05/28 06:33:26;;;;;;;;;8.33;5.00;;;;;16.52;54.86;101999.91;5017070;28;45511;-90
2022/05/28 06:35:57;;;;;;;;;7.00;6.00;;;;;17.01;54.86;102068.41;5018873;28;45535;-91
2022/05/28 06:38:23;;;;;;;;;8.33;7.33;;;;;16.50;55.19;101967.66;5017587;28;45547;-90
2022/05/28 06:40:51;;;;;;;;;6.00;5.00;;;;;16.59;55.16;101966.34;5003117;28;46640;-91
2022/05/28 06:43:17;;;;;;;;;6.67;6.67;;;;;16.94;54.87;102009.53;5019899;28;45313;-90
2022/05/28 06:45:42;;;;;;;;;10.00;8.33;;;;;16.84;54.73;101999.22;5018571;28;45556;-90
2022/05/28 06:48:08;;;;;;;;;5.33;4.00;;;;;16.91;54.54;101998.94;5019702;28;45532;-91
2022/05/28 06:53:18;;;;;;;;;6.33;5.67;;;;;17.11;54.53;102008.69;5019138;28;45677;-91
2022/05/28 06:55:43;;;;;;;;;7.67;6.67;;;;;17.47;54.90;102060.69;5019394;28;45482;-91
2022/05/28 06:58:08;;;;;;;;;9.67;6.00;;;;;17.10;54.48;101986.25;5003168;28;45376;-90
2022/05/28 07:00:35;;;;;;;;;11.67;7.00;;;;;17.63;54.29;102052.69;5019566;28;46441;-92
2022/05/28 07:03:01;;;;;;;;;8.00;6.00;;;;;17.47;54.40;102009.47;5030122;28;45337;-91
2022/05/28 07:05:28;;;;;;;;;7.67;6.33;;;;;16.81;54.21;101889.00;5026777;28;45534;-91
2022/05/28 07:07:54;;;;;;;;;8.67;7.67;;;;;17.42;54.02;101972.91;5005803;28;45249;-91
2022/05/28 07:10:19;;;;;;;;;8.33;6.33;;;;;17.85;54.43;102041.66;5019110;28;47548;-90
2022/05/28 07:12:45;;;;;;;;;8.67;6.67;;;;;17.35;54.23;101941.84;5006970;28;45607;-90
2022/05/28 07:15:13;;;;;;;;;8.00;6.00;;;;;17.93;54.17;102034.03;5007537;28;45562;-90
2022/05/28 07:17:39;;;;;;;;;8.00;6.00;;;;;17.96;53.75;102041.09;5009000;28;45401;-91
2022/05/28 07:20:04;;;;;;;;;6.33;6.33;;;;;17.88;53.71;102003.72;5007727;28;45411;-91
2022/05/28 07:22:30;;;;;;;;;6.00;6.00;;;;;17.94;53.89;102005.22;5020876;28;45543;-91
2022/05/28 07:24:55;;;;;;;;;7.00;7.00;;;;;18.19;53.00;102028.16;5019555;28;45380;-90
2022/05/28 07:27:21;;;;;;;;;7.00;5.33;;;;;18.17;53.43;102005.78;5010047;28;45420;-90
2022/05/28 07:29:46;;;;;;;;;6.00;5.00;;;;;18.06;52.65;101968.63;5011932;28;46480;-91
2022/05/28 07:32:12;;;;;;;;;4.00;4.00;;;;;18.18;52.85;101989.50;5018665;28;45419;-90
2022/05/28 07:34:37;;;;;;;;;4.00;4.00;;;;;18.44;52.60;102027.66;5002337;28;45388;-90
2022/05/28 07:37:03;;;;;;;;;7.00;7.00;;;;;18.28;52.31;101997.94;5034702;28;45622;-90
2022/05/28 07:39:29;;;;;;;;;9.33;6.00;;;;;18.23;52.06;101976.63;5018334;28;46530;-90
2022/05/28 07:41:55;;;;;;;;;11.33;7.67;;;;;18.38;52.58;102001.91;5012498;28;45480;-90
2022/05/28 07:44:20;;;;;;;;;8.00;6.33;;;;;18.46;51.70;101996.91;5008047;28;45911;-90
2022/05/28 07:46:46;;;;;;;;;5.00;5.00;;;;;17.96;52.14;101898.13;5031516;28;45529;-90
2022/05/28 07:49:12;;;;;;;;;7.67;7.00;;;;;18.06;51.81;101906.56;5018533;28;47126;-90
2022/05/28 07:51:37;;;;;;;;;9.33;6.33;;;;;18.09;51.21;101904.53;5007133;28;45495;-90
2022/05/28 07:54:04;;;;;;;;;5.00;5.00;;;;;18.82;51.14;102011.13;5014445;28;45538;-90
2022/05/28 07:56:30;;;;;;;;;6.33;5.00;;;;;18.75;51.12;101986.25;5018568;28;45541;-91
2022/05/28 07:58:57;;;;;;;;;6.00;6.00;;;;;18.90;50.94;101993.50;5019665;28;46877;-90
2022/05/28 08:01:26;;;;;;;;;5.33;5.33;;;;;19.11;50.71;102004.03;5002853;28;45547;-90
2022/05/28 08:03:51;;;;;;;;;8.00;6.00;;;;;19.02;51.00;101986.50;5005735;28;45415;-90
2022/05/28 08:06:18;;;;;;;;;4.33;2.00;;;;;19.26;50.13;102004.91;5017138;28;45447;-90
2022/05/28 08:08:43;;;;;;;;;6.33;6.33;;;;;18.37;49.85;101858.91;5017100;28;47230;-90
2022/05/28 08:11:09;;;;;;;;;6.67;6.67;;;;;19.18;50.02;101976.53;5016744;28;45380;-91
2022/05/28 08:13:36;;;;;;;;;9.67;7.00;;;;;19.14;49.46;101950.63;5001232;28;45391;-90
2022/05/28 08:16:04;;;;;;;;;8.00;7.67;;;;;19.21;49.57;101940.31;5003972;28;45484;-90
2022/05/28 08:18:30;;;;;;;;;9.67;5.33;;;;;19.12;49.22;101903.91;5016858;28;46402;-90
2022/05/28 08:23:43;;;;;;;;;7.00;7.00;;;;;19.45;48.50;101929.81;5014339;28;45529;-90
2022/05/28 08:26:10;;;;;;;;;7.33;5.00;;;;;19.76;48.28;101965.78;5006586;28;45417;-91
2022/05/28 08:28:38;;;;;;;;;8.00;7.33;;;;;19.88;47.88;101977.69;5000963;28;47015;-90
2022/05/28 08:31:09;;;;;;;;;9.00;5.00;;;;;19.55;46.97;101892.25;5017243;28;45840;-90
2022/05/28 08:33:36;;;;;;;;;7.33;5.00;;;;;20.26;46.81;101985.22;5006021;28;45421;-90
2022/05/28 08:36:02;;;;;;;;;6.00;6.00;;;;;20.39;46.13;101984.31;5007773;28;45361;-91
2022/05/28 08:38:28;;;;;;;;;6.67;4.33;;;;;20.50;46.14;101940.25;5006370;28;48196;-90
2022/05/28 08:41:06;;;;;;;;;7.00;4.00;;;;;21.30;44.51;101989.06;5003883;28;45350;-90
2022/05/28 08:43:34;;;;;;;;;6.67;4.00;;;;;21.61;43.67;101977.00;5000499;28;45619;-90
2022/05/28 08:46:00;;;;;;;;;6.67;4.67;;;;;22.21;42.82;101994.44;5018183;28;45381;-90
2022/05/28 08:48:46;;;;;;;;;8.00;6.00;;;;;22.57;42.61;101962.81;5007029;28;46520;-90
2022/05/28 08:51:48;;;;;;;;;7.00;6.33;;;;;23.06;40.68;101986.31;5005783;28;45388;-91
2022/05/28 08:54:38;;;;;;;;;7.33;7.00;;;;;23.25;41.09;101984.84;5014284;28;45480;-90
2022/05/28 08:57:17;;;;;;;;;5.00;5.00;;;;;23.15;41.24;101874.06;5010581;28;45511;-90
2022/05/28 08:59:54;;;;;;;;;5.00;4.00;;;;;24.52;39.56;101971.97;5009076;28;45680;-90
2022/05/28 09:02:34;;;;;;;;;7.00;6.00;;;;;24.77;38.95;101904.44;5016033;28;45470;-90
2022/05/28 09:05:01;;;;;;;;;6.00;5.00;;;;;25.74;37.20;101918.72;5003884;28;45436;-90
2022/05/28 09:07:27;;;;;;;;;5.00;4.67;;;;;26.17;36.17;101919.44;5001029;28;45327;-90
2022/05/28 09:10:10;;;;;;;;;5.00;5.00;;;;;26.58;35.67;101920.28;5003830;28;45466;-91
2022/05/28 09:12:45;;;;;;;;;4.67;3.67;;;;;27.01;34.60;101922.53;5005185;28;45393;-91
2022/05/28 09:15:11;;;;;;;;;4.00;4.00;;;;;27.50;33.32;101941.66;5013329;28;45610;-91
2022/05/28 09:17:49;;;;;;;;;5.00;4.00;;;;;27.97;34.05;101941.63;5017090;28;45450;-91
2022/05/28 09:20:21;;;;;;;;;7.33;5.00;;;;;28.57;33.18;101952.97;5016706;28;45738;-91
2022/05/28 09:22:47;;;;;;;;;4.00;4.00;;;;;28.53;31.69;101887.63;5016855;28;45456;-91
2022/05/28 09:25:16;;;;;;;;;5.33;5.33;;;;;28.92;31.33;101865.31;4999670;28;45550;-91
2022/05/28 09:28:14;;;;;;;;;5.33;4.33;;;;;29.67;30.75;101929.69;5005017;28;45385;-91
2022/05/28 09:31:09;;;;;;;;;3.33;3.33;;;;;30.22;28.52;101944.88;5004195;28;46651;-91
2022/05/28 09:34:01;;;;;;;;;6.00;5.00;;;;;30.56;27.55;101943.97;5010351;28;45959;-91
2022/05/28 09:37:05;;;;;;;;;5.00;4.00;;;;;30.24;29.19;101830.03;5005019;28;45581;-91
2022/05/28 09:40:13;;;;;;;;;5.00;4.00;;;;;31.49;28.55;101931.75;4974115;28;45971;-91
2022/05/28 09:43:22;;;;;;;;;3.33;3.33;;;;;31.98;28.11;101919.72;4936452;28;46349;-91
2022/05/28 09:46:02;;;;;;;;;3.33;2.67;;;;;32.40;26.83;101897.22;4935829;28;45288;-91
2022/05/28 09:48:28;;;;;;;;;6.00;4.67;;;;;32.12;26.10;101875.69;4936365;28;45625;-92
2022/05/28 09:50:55;;;;;;;;;2.67;2.67;;;;;31.73;25.71;101795.75;4936979;28;45559;-91
2022/05/28 09:56:26;;;;;;;;;2.67;2.67;;;;;33.15;25.22;101903.91;4936099;28;45551;-91
2022/05/28 09:58:52;;;;;;;;;3.33;3.33;;;;;32.78;24.48;101833.81;4935824;28;45277;-91
2022/05/28 10:01:28;;;;;;;;;4.00;4.00;;;;;31.98;25.00;101848.88;4921550;28;45571;-91
2022/05/28 10:06:51;;;;;;;;;2.00;2.00;;;;;32.36;24.92;101890.38;4955213;28;45600;-91
2022/05/28 10:09:22;;;;;;;;;5.00;5.00;;;;;33.05;23.81;101895.88;4955829;28;45442;-91
2022/05/28 10:11:50;;;;;;;;;5.67;5.67;;;;;31.26;24.89;101794.72;4955294;28;45458;-90
2022/05/28 10:14:16;;;;;;;;;4.33;4.33;;;;;30.66;26.21;101881.34;4963693;28;45651;-90
2022/05/28 10:16:41;;;;;;;;;3.00;3.00;;;;;31.48;26.13;101896.97;5005853;28;45586;-90
2022/05/28 10:19:17;;;;;;;;;5.00;3.00;;;;;34.31;22.69;101866.34;5001872;28;45416;-90
2022/05/28 10:21:50;;;;;;;;;3.00;3.00;;;;;35.84;20.78;101864.75;5020558;28;45501;-90
2022/05/28 10:24:19;;;;;;;;;3.00;3.00;;;;;35.60;20.03;101843.94;5018622;28;47450;-90
2022/05/28 10:26:48;;;;;;;;;3.00;3.00;;;;;34.85;19.82;101829.81;5014782;28;45381;-90
2022/05/28 10:29:27;;;;;;;;;3.00;2.00;;;;;33.30;21.81;101857.81;5008332;28;45417;-91
2022/05/28 10:31:54;;;;;;;;;27.00;24.00;;;;;31.74;22.99;101808.47;5019686;28;45583;-91
2022/05/28 10:34:40;;;;;;;;;33.00;30.00;;;;;32.58;23.06;101866.59;5003263;28;46713;-90
2022/05/28 10:37:26;;;;;;;;;5.33;5.33;;;;;33.00;22.12;101805.25;5003621;28;45274;-90
2022/05/28 10:40:03;;;;;;;;;11.67;11.33;;;;;33.18;22.41;101851.91;5020373;28;45303;-91
2022/05/28 10:42:29;;;;;;;;;14.00;14.00;;;;;31.61;22.74;101781.50;5021775;28;45578;-91
2022/05/28 10:44:56;;;;;;;;;16.67;15.67;;;;;30.52;23.31;101710.56;5021486;28;45684;-90
2022/05/28 10:47:42;;;;;;;;;12.33;11.67;;;;;29.76;24.47;101746.47;5019643;28;45498;-91
2022/05/28 10:50:57;;;;;;;;;21.67;20.67;;;;;29.21;24.95;101767.00;5000380;28;45425;-90
2022/05/28 10:53:41;;;;;;;;;11.00;10.00;;;;;29.17;25.24;101866.34;4938990;28;45472;-90
2022/05/28 10:56:21;;;;;;;;;52.50;41.50;;;;;28.45;25.40;101792.38;4927217;28;46591;-90
2022/05/28 10:59:07;;;;;;;;;29.67;29.67;;;;;28.15;25.94;101805.47;4927032;28;45739;-90
2022/05/28 11:01:39;;;;;;;;;11.33;9.00;;;;;28.40;26.44;101866.91;4940989;28;45335;-91
2022/05/28 11:04:28;;;;;;;;;4.00;4.00;;;;;28.48;26.20;101865.28;4940211;28;45542;-90
2022/05/28 11:07:03;;;;;;;;;6.00;4.67;;;;;28.70;25.87;101863.91;4938341;28;46250;-92
2022/05/28 11:09:53;;;;;;;;;5.33;5.33;;;;;28.74;26.24;101859.84;4925448;28;45585;-90
2022/05/28 11:12:55;;;;;;;;;3.67;3.67;;;;;28.67;26.47;101862.38;4942149;28;45521;-90
2022/05/28 11:15:45;;;;;;;;;10.33;8.00;;;;;28.67;25.71;101865.09;4940422;28;45438;-91
2022/05/28 11:18:44;;;;;;;;;3.00;3.00;;;;;28.50;25.89;101860.50;4942914;28;45387;-90
2022/05/28 11:21:31;;;;;;;;;4.00;3.00;;;;;28.33;25.48;101856.69;4940434;28;45441;-91
2022/05/28 11:24:24;;;;;;;;;1.00;1.00;;;;;28.34;25.25;101847.47;4933370;28;45461;-90
2022/05/28 11:26:49;;;;;;;;;9.67;9.00;;;;;28.43;25.29;101849.25;4955576;28;45427;-91
2022/05/28 11:29:31;;;;;;;;;5.33;4.33;;;;;28.58;25.86;101849.59;5017729;28;48308;-92
2022/05/28 11:32:03;;;;;;;;;24.67;24.67;;;;;28.07;25.38;101775.22;5020905;28;45570;-90
2022/05/28 11:34:52;;;;;;;;;4.00;3.67;;;;;28.35;25.41;101795.22;5020505;28;45534;-92
2022/05/28 11:37:26;;;;;;;;;22.33;22.33;;;;;28.11;25.07;101759.34;5022000;28;45462;-91
2022/05/28 11:40:07;;;;;;;;;7.00;5.33;;;;;28.17;24.79;101781.50;5022763;28;50812;-92
2022/05/28 11:42:41;;;;;;;;;8.67;6.00;;;;;27.82;24.61;101757.66;5025650;28;45375;-91
2022/05/28 11:45:15;;;;;;;;;2.67;2.67;;;;;27.72;24.55;101732.19;5026839;28;45522;-91
2022/05/28 11:47:48;;;;;;;;;9.67;8.67;;;;;27.29;24.28;101648.91;5026619;28;45495;-90
2022/05/28 11:53:07;;;;;;;;;10.33;7.00;;;;;28.20;25.45;101822.31;5023225;28;45317;-91
2022/05/28 11:55:36;;;;;;;;;18.67;16.67;;;;;27.04;25.73;101651.34;5005995;28;45159;-91